Strasbourg, France

3:16 PM CET on January 31, 2015 (GMT +0100)
Entzheim | Change Station
CLOSE
Current Station
Airport
Location: Strasbourg,
Elevation: 505 ft
Nearby Weather Stations

Elev 505 ft 48.55 °N, 7.64 °E | Updated 16 minutes ago

Light Rain
Light Rain
37 °F
Feels Like 31 °F
N
9
Wind Variable Wind from SSW

Today
High -- | Low -- °F
--% Chance of Precip.
Yesterday
High -- | Low -- °F
Precip. -- in
8:00 AM 5:25 PM
Waxing Gibbous, 90% visible
Pressure 29.06 in
Visibility 6.2 miles
Clouds Scattered Clouds 1300 ft
Scattered Clouds 2400 ft
Mostly Cloudy 3100 ft
Windchill 31 °F
Dew Point 34 °F
Humidity 87%
Rainfall 0.00 in
Snow Depth Not available.
UV 1 out of 12
Pollen Not available.
Air Quality Not available.
Flu Activity Not available.
METAR LFST 311400Z AUTO 20008KT 9999 -RA SCT013 SCT024 BKN031 03/01 Q0984

More Conditions Fewer Conditions

Pressure 29.06 in
Visibility 6.2 miles
Clouds Scattered Clouds 1300 ft
Scattered Clouds 2400 ft
Mostly Cloudy 3100 ft
Windchill 31 °F
Dew Point 34 °F
Humidity 87%
Rainfall 0.00 in
Snow Depth Not available.
UV 1 out of 12
Pollen Not available.
Air Quality Not available.
Flu Activity Not available.
METAR LFST 311400Z AUTO 20008KT 9999 -RA SCT013 SCT024 BKN031 03/01 Q0984

More Conditions Fewer Conditions

10-Day Weather Forecast

Almanac

Astronomy

Jan. 31, 2015 Rise Set
Actual Time
Civil Twilight
Nautical Twilight
Astronomical Twilight
Moon
Length of Visible Light
Length of Day
Tomorrow will be .
, % of the Moon is Illuminated

Today's Extremes

Country Highs Country Lows

Community

WunderPhotos

Upload Photos

1,792,058 photos uploaded!

WunderBlogs® & News

Nearby

Air Quality

  Air Quality AQ Index Pollutant
Not available.

Snow Depth

Station Depth Elevation

Earthquake Activity

City Distance Mag. Time & Date
Minimum magnitude displayed is 2.5.

Coastal Water Temperatures

Place Temperature

Nearby Weather Stations